sensor_id;sensor_type;location;lat;lon;timestamp;P1;durP1;ratioP1;P2;durP2;ratioP2
47772;SDS011;33534;51.028;13.716;2023-05-20T00:00:24;21.83;;;17.10;;
47772;SDS011;33534;51.028;13.716;2023-05-20T00:02:50;21.58;;;16.30;;
47772;SDS011;33534;51.028;13.716;2023-05-20T00:05:16;21.10;;;17.08;;
47772;SDS011;33534;51.028;13.716;2023-05-20T00:07:42;23.73;;;18.25;;
47772;SDS011;33534;51.028;13.716;2023-05-20T00:10:08;26.75;;;18.85;;
47772;SDS011;33534;51.028;13.716;2023-05-20T00:12:35;21.65;;;16.70;;
47772;SDS011;33534;51.028;13.716;2023-05-20T00:15:01;24.35;;;18.33;;
47772;SDS011;33534;51.028;13.716;2023-05-20T00:17:27;22.30;;;17.77;;
47772;SDS011;33534;51.028;13.716;2023-05-20T00:19:53;22.55;;;17.58;;
47772;SDS011;33534;51.028;13.716;2023-05-20T00:22:19;23.15;;;17.63;;
47772;SDS011;33534;51.028;13.716;2023-05-20T00:24:45;23.05;;;17.67;;
47772;SDS011;33534;51.028;13.716;2023-05-20T00:27:11;22.70;;;18.42;;
47772;SDS011;33534;51.028;13.716;2023-05-20T00:29:37;25.15;;;18.77;;
47772;SDS011;33534;51.028;13.716;2023-05-20T00:32:03;23.27;;;19.25;;
47772;SDS011;33534;51.028;13.716;2023-05-20T00:34:29;25.13;;;18.63;;
47772;SDS011;33534;51.028;13.716;2023-05-20T00:36:55;22.77;;;19.05;;
47772;SDS011;33534;51.028;13.716;2023-05-20T00:39:21;25.27;;;20.25;;
47772;SDS011;33534;51.028;13.716;2023-05-20T00:41:47;29.52;;;19.80;;
47772;SDS011;33534;51.028;13.716;2023-05-20T00:44:13;26.45;;;20.45;;
47772;SDS011;33534;51.028;13.716;2023-05-20T00:46:40;28.00;;;21.23;;
47772;SDS011;33534;51.028;13.716;2023-05-20T00:49:06;28.70;;;20.63;;
47772;SDS011;33534;51.028;13.716;2023-05-20T00:51:32;27.02;;;20.95;;
47772;SDS011;33534;51.028;13.716;2023-05-20T00:53:58;25.40;;;20.27;;
47772;SDS011;33534;51.028;13.716;2023-05-20T00:56:24;29.40;;;21.55;;
47772;SDS011;33534;51.028;13.716;2023-05-20T00:58:50;32.70;;;21.58;;
47772;SDS011;33534;51.028;13.716;2023-05-20T01:01:16;28.38;;;21.20;;
47772;SDS011;33534;51.028;13.716;2023-05-20T01:03:43;30.88;;;23.00;;
47772;SDS011;33534;51.028;13.716;2023-05-20T01:06:09;30.25;;;21.48;;
47772;SDS011;33534;51.028;13.716;2023-05-20T01:08:35;28.65;;;20.70;;
47772;SDS011;33534;51.028;13.716;2023-05-20T01:13:28;28.45;;;22.67;;
47772;SDS011;33534;51.028;13.716;2023-05-20T01:15:56;29.88;;;23.00;;
47772;SDS011;33534;51.028;13.716;2023-05-20T01:18:23;32.63;;;22.50;;
47772;SDS011;33534;51.028;13.716;2023-05-20T01:20:50;30.65;;;22.65;;
47772;SDS011;33534;51.028;13.716;2023-05-20T01:23:19;34.90;;;24.65;;
47772;SDS011;33534;51.028;13.716;2023-05-20T01:25:45;30.73;;;23.67;;
47772;SDS011;33534;51.028;13.716;2023-05-20T01:28:11;32.05;;;23.13;;
47772;SDS011;33534;51.028;13.716;2023-05-20T01:30:42;30.48;;;23.05;;
47772;SDS011;33534;51.028;13.716;2023-05-20T01:33:10;30.38;;;23.67;;
47772;SDS011;33534;51.028;13.716;2023-05-20T01:35:37;33.25;;;24.20;;
47772;SDS011;33534;51.028;13.716;2023-05-20T01:38:04;29.30;;;22.80;;
47772;SDS011;33534;51.028;13.716;2023-05-20T01:40:30;29.60;;;22.30;;
47772;SDS011;33534;51.028;13.716;2023-05-20T01:42:57;34.05;;;23.35;;
47772;SDS011;33534;51.028;13.716;2023-05-20T01:45:24;30.88;;;22.70;;
47772;SDS011;33534;51.028;13.716;2023-05-20T01:47:50;30.85;;;23.75;;
47772;SDS011;33534;51.028;13.716;2023-05-20T01:50:16;34.10;;;24.30;;
47772;SDS011;33534;51.028;13.716;2023-05-20T01:52:42;29.45;;;21.92;;
47772;SDS011;33534;51.028;13.716;2023-05-20T01:55:08;29.30;;;22.75;;
47772;SDS011;33534;51.028;13.716;2023-05-20T01:57:34;27.50;;;22.02;;
47772;SDS011;33534;51.028;13.716;2023-05-20T02:00:00;32.88;;;23.60;;
47772;SDS011;33534;51.028;13.716;2023-05-20T02:02:26;31.27;;;23.10;;
47772;SDS011;33534;51.028;13.716;2023-05-20T02:04:52;32.95;;;23.02;;
47772;SDS011;33534;51.028;13.716;2023-05-20T02:07:19;32.47;;;23.00;;
47772;SDS011;33534;51.028;13.716;2023-05-20T02:09:45;30.40;;;23.30;;
47772;SDS011;33534;51.028;13.716;2023-05-20T02:12:11;30.45;;;23.00;;
47772;SDS011;33534;51.028;13.716;2023-05-20T02:14:43;29.02;;;21.65;;
47772;SDS011;33534;51.028;13.716;2023-05-20T02:17:10;27.75;;;22.17;;
47772;SDS011;33534;51.028;13.716;2023-05-20T02:19:36;30.20;;;22.48;;
47772;SDS011;33534;51.028;13.716;2023-05-20T02:22:02;30.13;;;22.17;;
47772;SDS011;33534;51.028;13.716;2023-05-20T02:24:28;29.83;;;22.98;;
47772;SDS011;33534;51.028;13.716;2023-05-20T02:26:54;33.67;;;24.95;;
47772;SDS011;33534;51.028;13.716;2023-05-20T02:29:21;30.63;;;22.75;;
47772;SDS011;33534;51.028;13.716;2023-05-20T02:31:47;31.83;;;22.88;;
47772;SDS011;33534;51.028;13.716;2023-05-20T02:34:14;32.03;;;23.13;;
47772;SDS011;33534;51.028;13.716;2023-05-20T02:36:40;31.10;;;22.90;;
47772;SDS011;33534;51.028;13.716;2023-05-20T02:39:06;28.08;;;22.25;;
47772;SDS011;33534;51.028;13.716;2023-05-20T02:41:32;35.17;;;23.67;;
47772;SDS011;33534;51.028;13.716;2023-05-20T02:43:58;29.60;;;23.13;;
47772;SDS011;33534;51.028;13.716;2023-05-20T02:46:24;34.03;;;24.15;;
47772;SDS011;33534;51.028;13.716;2023-05-20T02:48:50;32.75;;;25.05;;
47772;SDS011;33534;51.028;13.716;2023-05-20T02:51:16;32.13;;;24.38;;
47772;SDS011;33534;51.028;13.716;2023-05-20T02:53:42;35.88;;;25.95;;
47772;SDS011;33534;51.028;13.716;2023-05-20T02:56:08;38.50;;;24.52;;
47772;SDS011;33534;51.028;13.716;2023-05-20T02:58:35;33.65;;;24.33;;
47772;SDS011;33534;51.028;13.716;2023-05-20T03:01:01;33.40;;;24.45;;
47772;SDS011;33534;51.028;13.716;2023-05-20T03:03:27;33.08;;;24.25;;
47772;SDS011;33534;51.028;13.716;2023-05-20T03:05:53;33.10;;;25.85;;
47772;SDS011;33534;51.028;13.716;2023-05-20T03:08:20;32.42;;;24.60;;
47772;SDS011;33534;51.028;13.716;2023-05-20T03:10:46;33.33;;;23.25;;
47772;SDS011;33534;51.028;13.716;2023-05-20T03:13:12;36.47;;;25.55;;
47772;SDS011;33534;51.028;13.716;2023-05-20T03:15:42;31.80;;;24.48;;
47772;SDS011;33534;51.028;13.716;2023-05-20T03:18:11;32.22;;;23.85;;
47772;SDS011;33534;51.028;13.716;2023-05-20T03:20:37;32.47;;;24.42;;
47772;SDS011;33534;51.028;13.716;2023-05-20T03:23:05;34.38;;;24.33;;
47772;SDS011;33534;51.028;13.716;2023-05-20T03:25:32;29.98;;;24.13;;
47772;SDS011;33534;51.028;13.716;2023-05-20T03:27:58;33.63;;;24.58;;
47772;SDS011;33534;51.028;13.716;2023-05-20T03:30:24;30.85;;;23.35;;
47772;SDS011;33534;51.028;13.716;2023-05-20T03:32:50;32.72;;;24.98;;
47772;SDS011;33534;51.028;13.716;2023-05-20T03:35:16;33.35;;;23.88;;
47772;SDS011;33534;51.028;13.716;2023-05-20T03:37:42;31.75;;;24.02;;
47772;SDS011;33534;51.028;13.716;2023-05-20T03:40:08;35.25;;;24.92;;
47772;SDS011;33534;51.028;13.716;2023-05-20T03:42:35;32.05;;;23.35;;
47772;SDS011;33534;51.028;13.716;2023-05-20T03:45:01;33.75;;;24.20;;
47772;SDS011;33534;51.028;13.716;2023-05-20T03:47:27;33.75;;;24.08;;
47772;SDS011;33534;51.028;13.716;2023-05-20T03:49:53;33.72;;;24.55;;
47772;SDS011;33534;51.028;13.716;2023-05-20T03:52:19;32.20;;;23.77;;
47772;SDS011;33534;51.028;13.716;2023-05-20T03:54:45;30.42;;;23.30;;
47772;SDS011;33534;51.028;13.716;2023-05-20T03:57:11;35.50;;;26.58;;
47772;SDS011;33534;51.028;13.716;2023-05-20T03:59:38;37.60;;;24.27;;
47772;SDS011;33534;51.028;13.716;2023-05-20T04:02:04;29.83;;;22.73;;
47772;SDS011;33534;51.028;13.716;2023-05-20T04:04:30;34.88;;;23.67;;
47772;SDS011;33534;51.028;13.716;2023-05-20T04:06:57;32.83;;;23.60;;
47772;SDS011;33534;51.028;13.716;2023-05-20T04:09:27;30.35;;;22.92;;
47772;SDS011;33534;51.028;13.716;2023-05-20T04:11:53;29.88;;;21.33;;
47772;SDS011;33534;51.028;13.716;2023-05-20T04:14:19;27.58;;;22.30;;
47772;SDS011;33534;51.028;13.716;2023-05-20T04:16:45;27.75;;;22.40;;
47772;SDS011;33534;51.028;13.716;2023-05-20T04:19:11;27.52;;;22.63;;
47772;SDS011;33534;51.028;13.716;2023-05-20T04:21:37;30.98;;;22.73;;
47772;SDS011;33534;51.028;13.716;2023-05-20T04:24:03;29.55;;;21.27;;
47772;SDS011;33534;51.028;13.716;2023-05-20T04:26:30;28.00;;;21.90;;
47772;SDS011;33534;51.028;13.716;2023-05-20T04:28:57;29.30;;;21.98;;
47772;SDS011;33534;51.028;13.716;2023-05-20T04:31:25;27.98;;;21.67;;
47772;SDS011;33534;51.028;13.716;2023-05-20T04:33:52;28.92;;;22.13;;
47772;SDS011;33534;51.028;13.716;2023-05-20T04:36:18;32.38;;;25.13;;
47772;SDS011;33534;51.028;13.716;2023-05-20T04:38:44;33.88;;;23.25;;
47772;SDS011;33534;51.028;13.716;2023-05-20T04:41:12;30.95;;;23.40;;
47772;SDS011;33534;51.028;13.716;2023-05-20T04:43:39;28.80;;;22.52;;
47772;SDS011;33534;51.028;13.716;2023-05-20T04:46:05;31.77;;;22.88;;
47772;SDS011;33534;51.028;13.716;2023-05-20T04:48:32;30.42;;;23.85;;
47772;SDS011;33534;51.028;13.716;2023-05-20T04:50:58;33.55;;;24.40;;
47772;SDS011;33534;51.028;13.716;2023-05-20T04:53:24;31.15;;;23.58;;
47772;SDS011;33534;51.028;13.716;2023-05-20T04:55:53;25.85;;;21.52;;
47772;SDS011;33534;51.028;13.716;2023-05-20T04:58:20;28.35;;;22.13;;
47772;SDS011;33534;51.028;13.716;2023-05-20T05:00:48;30.80;;;23.52;;
47772;SDS011;33534;51.028;13.716;2023-05-20T05:03:14;33.45;;;24.23;;
47772;SDS011;33534;51.028;13.716;2023-05-20T05:05:40;31.25;;;23.13;;
47772;SDS011;33534;51.028;13.716;2023-05-20T05:08:07;29.33;;;23.02;;
47772;SDS011;33534;51.028;13.716;2023-05-20T05:10:33;32.15;;;23.23;;
47772;SDS011;33534;51.028;13.716;2023-05-20T05:13:00;29.48;;;23.38;;
47772;SDS011;33534;51.028;13.716;2023-05-20T05:15:26;36.38;;;24.80;;
47772;SDS011;33534;51.028;13.716;2023-05-20T05:17:52;30.85;;;22.75;;
47772;SDS011;33534;51.028;13.716;2023-05-20T05:20:18;31.65;;;25.63;;
47772;SDS011;33534;51.028;13.716;2023-05-20T05:22:45;33.13;;;25.48;;
47772;SDS011;33534;51.028;13.716;2023-05-20T05:25:11;35.00;;;25.83;;
47772;SDS011;33534;51.028;13.716;2023-05-20T05:27:37;30.45;;;24.60;;
47772;SDS011;33534;51.028;13.716;2023-05-20T05:30:05;34.83;;;26.40;;
47772;SDS011;33534;51.028;13.716;2023-05-20T05:32:32;30.88;;;24.95;;
47772;SDS011;33534;51.028;13.716;2023-05-20T05:34:58;38.80;;;26.83;;
47772;SDS011;33534;51.028;13.716;2023-05-20T05:37:24;35.28;;;24.23;;
47772;SDS011;33534;51.028;13.716;2023-05-20T05:39:51;35.85;;;26.55;;
47772;SDS011;33534;51.028;13.716;2023-05-20T05:42:16;32.25;;;25.88;;
47772;SDS011;33534;51.028;13.716;2023-05-20T05:44:43;36.88;;;26.25;;
47772;SDS011;33534;51.028;13.716;2023-05-20T05:47:09;34.15;;;24.40;;
47772;SDS011;33534;51.028;13.716;2023-05-20T05:49:35;34.03;;;25.27;;
47772;SDS011;33534;51.028;13.716;2023-05-20T05:52:01;33.05;;;24.45;;
47772;SDS011;33534;51.028;13.716;2023-05-20T05:54:27;38.55;;;24.60;;
47772;SDS011;33534;51.028;13.716;2023-05-20T05:56:53;34.08;;;26.08;;
47772;SDS011;33534;51.028;13.716;2023-05-20T05:59:22;33.55;;;24.40;;
47772;SDS011;33534;51.028;13.716;2023-05-20T06:01:48;37.92;;;25.42;;
47772;SDS011;33534;51.028;13.716;2023-05-20T06:04:14;35.15;;;26.15;;
47772;SDS011;33534;51.028;13.716;2023-05-20T06:06:40;35.88;;;26.15;;
47772;SDS011;33534;51.028;13.716;2023-05-20T06:09:06;33.47;;;25.58;;
47772;SDS011;33534;51.028;13.716;2023-05-20T06:11:32;32.28;;;23.50;;
47772;SDS011;33534;51.028;13.716;2023-05-20T06:14:00;31.45;;;24.95;;
47772;SDS011;33534;51.028;13.716;2023-05-20T06:16:26;33.55;;;25.63;;
47772;SDS011;33534;51.028;13.716;2023-05-20T06:18:52;36.20;;;25.27;;
47772;SDS011;33534;51.028;13.716;2023-05-20T06:21:21;30.50;;;23.90;;
47772;SDS011;33534;51.028;13.716;2023-05-20T06:23:47;34.55;;;24.17;;
47772;SDS011;33534;51.028;13.716;2023-05-20T06:26:13;33.03;;;24.85;;
47772;SDS011;33534;51.028;13.716;2023-05-20T06:28:39;32.17;;;24.27;;
47772;SDS011;33534;51.028;13.716;2023-05-20T06:31:06;33.40;;;24.67;;
47772;SDS011;33534;51.028;13.716;2023-05-20T06:33:32;35.58;;;23.83;;
47772;SDS011;33534;51.028;13.716;2023-05-20T06:35:58;32.70;;;24.70;;
47772;SDS011;33534;51.028;13.716;2023-05-20T06:38:25;32.97;;;23.95;;
47772;SDS011;33534;51.028;13.716;2023-05-20T06:40:51;32.95;;;24.90;;
47772;SDS011;33534;51.028;13.716;2023-05-20T06:43:17;32.58;;;22.60;;
47772;SDS011;33534;51.028;13.716;2023-05-20T06:45:44;29.52;;;22.77;;
47772;SDS011;33534;51.028;13.716;2023-05-20T06:48:10;31.52;;;23.80;;
47772;SDS011;33534;51.028;13.716;2023-05-20T06:50:36;33.47;;;24.05;;
47772;SDS011;33534;51.028;13.716;2023-05-20T06:53:02;34.78;;;25.13;;
47772;SDS011;33534;51.028;13.716;2023-05-20T06:55:28;31.25;;;24.23;;
47772;SDS011;33534;51.028;13.716;2023-05-20T06:57:54;32.67;;;24.45;;
47772;SDS011;33534;51.028;13.716;2023-05-20T07:00:20;30.95;;;23.30;;
47772;SDS011;33534;51.028;13.716;2023-05-20T07:02:46;32.22;;;23.67;;
47772;SDS011;33534;51.028;13.716;2023-05-20T07:05:12;28.83;;;22.73;;
47772;SDS011;33534;51.028;13.716;2023-05-20T07:07:38;30.38;;;23.13;;
47772;SDS011;33534;51.028;13.716;2023-05-20T07:10:04;30.08;;;23.92;;
47772;SDS011;33534;51.028;13.716;2023-05-20T07:12:31;30.63;;;23.13;;
47772;SDS011;33534;51.028;13.716;2023-05-20T07:14:57;33.80;;;24.13;;
47772;SDS011;33534;51.028;13.716;2023-05-20T07:17:23;32.88;;;25.38;;
47772;SDS011;33534;51.028;13.716;2023-05-20T07:19:50;31.80;;;24.45;;
47772;SDS011;33534;51.028;13.716;2023-05-20T07:22:16;29.77;;;22.77;;
47772;SDS011;33534;51.028;13.716;2023-05-20T07:24:42;30.30;;;23.33;;
47772;SDS011;33534;51.028;13.716;2023-05-20T07:27:08;30.80;;;23.73;;
47772;SDS011;33534;51.028;13.716;2023-05-20T07:29:34;28.50;;;23.95;;
47772;SDS011;33534;51.028;13.716;2023-05-20T07:32:01;31.27;;;25.50;;
47772;SDS011;33534;51.028;13.716;2023-05-20T07:34:27;28.27;;;22.92;;
47772;SDS011;33534;51.028;13.716;2023-05-20T07:36:53;30.48;;;23.15;;
47772;SDS011;33534;51.028;13.716;2023-05-20T07:39:21;31.45;;;23.48;;
47772;SDS011;33534;51.028;13.716;2023-05-20T07:41:47;28.20;;;22.42;;
47772;SDS011;33534;51.028;13.716;2023-05-20T07:44:13;25.98;;;21.58;;
47772;SDS011;33534;51.028;13.716;2023-05-20T07:46:40;25.90;;;20.42;;
47772;SDS011;33534;51.028;13.716;2023-05-20T07:49:06;24.90;;;21.30;;
47772;SDS011;33534;51.028;13.716;2023-05-20T07:51:32;24.35;;;20.95;;
47772;SDS011;33534;51.028;13.716;2023-05-20T07:53:59;27.23;;;22.63;;
47772;SDS011;33534;51.028;13.716;2023-05-20T07:56:25;30.42;;;22.90;;
47772;SDS011;33534;51.028;13.716;2023-05-20T07:58:53;30.73;;;21.48;;
47772;SDS011;33534;51.028;13.716;2023-05-20T08:01:19;28.23;;;23.02;;
47772;SDS011;33534;51.028;13.716;2023-05-20T08:03:45;24.27;;;20.35;;
47772;SDS011;33534;51.028;13.716;2023-05-20T08:06:12;38.35;;;21.85;;
47772;SDS011;33534;51.028;13.716;2023-05-20T08:08:38;26.02;;;20.92;;
47772;SDS011;33534;51.028;13.716;2023-05-20T08:11:07;24.65;;;19.95;;
47772;SDS011;33534;51.028;13.716;2023-05-20T08:13:33;25.17;;;21.15;;
47772;SDS011;33534;51.028;13.716;2023-05-20T08:16:00;27.52;;;20.08;;
47772;SDS011;33534;51.028;13.716;2023-05-20T08:18:28;24.17;;;19.85;;
47772;SDS011;33534;51.028;13.716;2023-05-20T08:20:54;28.00;;;22.63;;
47772;SDS011;33534;51.028;13.716;2023-05-20T08:23:21;30.95;;;24.65;;
47772;SDS011;33534;51.028;13.716;2023-05-20T08:25:47;25.90;;;20.88;;
47772;SDS011;33534;51.028;13.716;2023-05-20T08:28:13;24.55;;;20.10;;
47772;SDS011;33534;51.028;13.716;2023-05-20T08:30:39;23.05;;;18.92;;
47772;SDS011;33534;51.028;13.716;2023-05-20T08:33:05;24.48;;;19.55;;
47772;SDS011;33534;51.028;13.716;2023-05-20T08:35:31;26.23;;;22.02;;
47772;SDS011;33534;51.028;13.716;2023-05-20T08:37:57;46.95;;;36.88;;
47772;SDS011;33534;51.028;13.716;2023-05-20T08:40:25;28.77;;;22.55;;
47772;SDS011;33534;51.028;13.716;2023-05-20T08:42:51;24.48;;;19.60;;
47772;SDS011;33534;51.028;13.716;2023-05-20T08:45:18;22.48;;;18.67;;
47772;SDS011;33534;51.028;13.716;2023-05-20T08:47:45;37.20;;;26.98;;
47772;SDS011;33534;51.028;13.716;2023-05-20T08:50:12;23.10;;;18.08;;
47772;SDS011;33534;51.028;13.716;2023-05-20T08:52:41;23.08;;;18.67;;
47772;SDS011;33534;51.028;13.716;2023-05-20T08:55:10;24.00;;;19.73;;
47772;SDS011;33534;51.028;13.716;2023-05-20T08:57:38;20.92;;;17.45;;
47772;SDS011;33534;51.028;13.716;2023-05-20T09:00:06;23.65;;;20.08;;
47772;SDS011;33534;51.028;13.716;2023-05-20T09:02:37;35.45;;;26.27;;
47772;SDS011;33534;51.028;13.716;2023-05-20T09:05:04;30.65;;;20.02;;
47772;SDS011;33534;51.028;13.716;2023-05-20T09:07:31;24.77;;;18.55;;
47772;SDS011;33534;51.028;13.716;2023-05-20T09:09:57;25.48;;;18.85;;
47772;SDS011;33534;51.028;13.716;2023-05-20T09:12:23;26.42;;;19.48;;
47772;SDS011;33534;51.028;13.716;2023-05-20T09:14:49;20.70;;;18.35;;
47772;SDS011;33534;51.028;13.716;2023-05-20T09:17:15;24.58;;;19.48;;
47772;SDS011;33534;51.028;13.716;2023-05-20T09:19:46;25.90;;;20.63;;
47772;SDS011;33534;51.028;13.716;2023-05-20T09:22:12;23.30;;;18.95;;
47772;SDS011;33534;51.028;13.716;2023-05-20T09:24:38;24.15;;;17.08;;
47772;SDS011;33534;51.028;13.716;2023-05-20T09:27:05;24.08;;;19.40;;
47772;SDS011;33534;51.028;13.716;2023-05-20T09:29:32;23.98;;;18.45;;
47772;SDS011;33534;51.028;13.716;2023-05-20T09:32:00;23.25;;;18.10;;
47772;SDS011;33534;51.028;13.716;2023-05-20T09:34:27;22.20;;;18.02;;
47772;SDS011;33534;51.028;13.716;2023-05-20T09:36:53;23.20;;;17.25;;
47772;SDS011;33534;51.028;13.716;2023-05-20T09:39:21;24.05;;;16.95;;
47772;SDS011;33534;51.028;13.716;2023-05-20T09:44:16;21.83;;;18.15;;
47772;SDS011;33534;51.028;13.716;2023-05-20T09:46:42;22.13;;;16.08;;
47772;SDS011;33534;51.028;13.716;2023-05-20T09:49:10;21.08;;;16.73;;
47772;SDS011;33534;51.028;13.716;2023-05-20T09:51:36;19.98;;;16.42;;
47772;SDS011;33534;51.028;13.716;2023-05-20T09:54:02;18.85;;;16.45;;
47772;SDS011;33534;51.028;13.716;2023-05-20T09:56:28;19.50;;;16.33;;
47772;SDS011;33534;51.028;13.716;2023-05-20T09:58:56;22.52;;;17.95;;
47772;SDS011;33534;51.028;13.716;2023-05-20T10:01:23;20.98;;;16.50;;
47772;SDS011;33534;51.028;13.716;2023-05-20T10:03:51;21.13;;;16.70;;
47772;SDS011;33534;51.028;13.716;2023-05-20T10:06:40;20.85;;;17.55;;
47772;SDS011;33534;51.028;13.716;2023-05-20T10:11:37;21.23;;;17.33;;
47772;SDS011;33534;51.028;13.716;2023-05-20T10:16:47;21.60;;;18.10;;
47772;SDS011;33534;51.028;13.716;2023-05-20T10:21:40;25.38;;;19.67;;
47772;SDS011;33534;51.028;13.716;2023-05-20T10:24:07;26.73;;;18.42;;
47772;SDS011;33534;51.028;13.716;2023-05-20T10:26:36;23.98;;;18.30;;
47772;SDS011;33534;51.028;13.716;2023-05-20T10:29:18;25.17;;;18.63;;
47772;SDS011;33534;51.028;13.716;2023-05-20T10:31:47;22.33;;;17.30;;
47772;SDS011;33534;51.028;13.716;2023-05-20T10:34:13;22.77;;;17.92;;
47772;SDS011;33534;51.028;13.716;2023-05-20T10:36:43;20.95;;;17.63;;
47772;SDS011;33534;51.028;13.716;2023-05-20T10:39:13;22.83;;;17.65;;
47772;SDS011;33534;51.028;13.716;2023-05-20T10:41:42;24.70;;;18.10;;
47772;SDS011;33534;51.028;13.716;2023-05-20T10:44:09;22.65;;;17.10;;
47772;SDS011;33534;51.028;13.716;2023-05-20T10:46:35;20.77;;;16.83;;
47772;SDS011;33534;51.028;13.716;2023-05-20T10:49:01;24.42;;;18.00;;
47772;SDS011;33534;51.028;13.716;2023-05-20T10:51:28;21.15;;;17.25;;
47772;SDS011;33534;51.028;13.716;2023-05-20T10:53:55;21.58;;;16.98;;
47772;SDS011;33534;51.028;13.716;2023-05-20T10:56:22;23.23;;;16.30;;
47772;SDS011;33534;51.028;13.716;2023-05-20T10:58:49;21.00;;;15.38;;
47772;SDS011;33534;51.028;13.716;2023-05-20T11:01:16;22.20;;;17.02;;
47772;SDS011;33534;51.028;13.716;2023-05-20T11:03:46;21.50;;;16.85;;
47772;SDS011;33534;51.028;13.716;2023-05-20T11:06:14;20.45;;;16.80;;
47772;SDS011;33534;51.028;13.716;2023-05-20T11:08:40;20.50;;;17.05;;
47772;SDS011;33534;51.028;13.716;2023-05-20T11:11:06;23.65;;;17.70;;
47772;SDS011;33534;51.028;13.716;2023-05-20T11:13:32;21.00;;;16.42;;
47772;SDS011;33534;51.028;13.716;2023-05-20T11:15:59;19.92;;;16.35;;
47772;SDS011;33534;51.028;13.716;2023-05-20T11:18:26;21.40;;;16.63;;
47772;SDS011;33534;51.028;13.716;2023-05-20T11:20:56;22.77;;;16.90;;
47772;SDS011;33534;51.028;13.716;2023-05-20T11:23:23;21.05;;;16.83;;
47772;SDS011;33534;51.028;13.716;2023-05-20T11:25:50;22.38;;;17.00;;
47772;SDS011;33534;51.028;13.716;2023-05-20T11:28:18;23.23;;;16.02;;
47772;SDS011;33534;51.028;13.716;2023-05-20T11:30:45;26.15;;;17.20;;
47772;SDS011;33534;51.028;13.716;2023-05-20T11:33:11;25.33;;;18.25;;
47772;SDS011;33534;51.028;13.716;2023-05-20T11:35:43;21.83;;;17.45;;
47772;SDS011;33534;51.028;13.716;2023-05-20T11:38:09;19.23;;;16.60;;
47772;SDS011;33534;51.028;13.716;2023-05-20T11:40:36;17.60;;;15.25;;
47772;SDS011;33534;51.028;13.716;2023-05-20T11:43:02;19.08;;;16.27;;
47772;SDS011;33534;51.028;13.716;2023-05-20T11:45:41;19.50;;;15.73;;
47772;SDS011;33534;51.028;13.716;2023-05-20T11:48:07;19.10;;;16.10;;
47772;SDS011;33534;51.028;13.716;2023-05-20T11:50:37;27.98;;;15.65;;
47772;SDS011;33534;51.028;13.716;2023-05-20T11:53:05;19.23;;;15.68;;
47772;SDS011;33534;51.028;13.716;2023-05-20T11:55:32;16.90;;;14.45;;
47772;SDS011;33534;51.028;13.716;2023-05-20T11:57:58;20.40;;;14.77;;
47772;SDS011;33534;51.028;13.716;2023-05-20T12:00:24;17.52;;;15.20;;
47772;SDS011;33534;51.028;13.716;2023-05-20T12:02:50;17.80;;;13.80;;
47772;SDS011;33534;51.028;13.716;2023-05-20T12:05:17;18.45;;;14.85;;
47772;SDS011;33534;51.028;13.716;2023-05-20T12:07:43;18.63;;;14.30;;
47772;SDS011;33534;51.028;13.716;2023-05-20T12:10:09;16.73;;;14.18;;
47772;SDS011;33534;51.028;13.716;2023-05-20T12:12:35;21.40;;;14.15;;
47772;SDS011;33534;51.028;13.716;2023-05-20T12:15:04;17.00;;;14.70;;
47772;SDS011;33534;51.028;13.716;2023-05-20T12:17:33;20.92;;;15.77;;
47772;SDS011;33534;51.028;13.716;2023-05-20T12:19:59;18.10;;;14.70;;
47772;SDS011;33534;51.028;13.716;2023-05-20T12:22:26;17.40;;;14.82;;
47772;SDS011;33534;51.028;13.716;2023-05-20T12:24:52;18.60;;;14.27;;
47772;SDS011;33534;51.028;13.716;2023-05-20T12:27:18;17.08;;;14.68;;
47772;SDS011;33534;51.028;13.716;2023-05-20T12:29:44;17.50;;;14.13;;
47772;SDS011;33534;51.028;13.716;2023-05-20T12:32:10;17.70;;;15.15;;
47772;SDS011;33534;51.028;13.716;2023-05-20T12:34:36;20.20;;;14.98;;
47772;SDS011;33534;51.028;13.716;2023-05-20T12:37:02;20.13;;;14.20;;
47772;SDS011;33534;51.028;13.716;2023-05-20T12:39:28;19.17;;;14.40;;
47772;SDS011;33534;51.028;13.716;2023-05-20T12:41:54;17.95;;;14.13;;
47772;SDS011;33534;51.028;13.716;2023-05-20T12:44:20;16.65;;;13.40;;
47772;SDS011;33534;51.028;13.716;2023-05-20T12:46:46;18.42;;;14.05;;
47772;SDS011;33534;51.028;13.716;2023-05-20T12:49:12;17.83;;;14.60;;
47772;SDS011;33534;51.028;13.716;2023-05-20T12:51:38;15.65;;;12.95;;
47772;SDS011;33534;51.028;13.716;2023-05-20T12:54:04;23.10;;;13.35;;
47772;SDS011;33534;51.028;13.716;2023-05-20T12:56:30;14.82;;;12.73;;
47772;SDS011;33534;51.028;13.716;2023-05-20T12:58:56;15.95;;;13.23;;
47772;SDS011;33534;51.028;13.716;2023-05-20T13:01:22;15.43;;;13.45;;
47772;SDS011;33534;51.028;13.716;2023-05-20T13:03:48;15.23;;;13.60;;
47772;SDS011;33534;51.028;13.716;2023-05-20T13:06:17;19.83;;;12.98;;
47772;SDS011;33534;51.028;13.716;2023-05-20T13:08:43;15.27;;;12.82;;
47772;SDS011;33534;51.028;13.716;2023-05-20T13:11:09;15.55;;;13.00;;
47772;SDS011;33534;51.028;13.716;2023-05-20T13:13:35;18.33;;;12.88;;
47772;SDS011;33534;51.028;13.716;2023-05-20T13:16:01;17.60;;;13.95;;
47772;SDS011;33534;51.028;13.716;2023-05-20T13:18:27;17.70;;;13.95;;
47772;SDS011;33534;51.028;13.716;2023-05-20T13:20:53;20.45;;;15.40;;
47772;SDS011;33534;51.028;13.716;2023-05-20T13:23:19;18.73;;;15.40;;
47772;SDS011;33534;51.028;13.716;2023-05-20T13:25:45;18.77;;;14.32;;
47772;SDS011;33534;51.028;13.716;2023-05-20T13:28:11;21.73;;;15.48;;
47772;SDS011;33534;51.028;13.716;2023-05-20T13:30:40;17.02;;;14.38;;
47772;SDS011;33534;51.028;13.716;2023-05-20T13:33:06;20.48;;;14.77;;
47772;SDS011;33534;51.028;13.716;2023-05-20T13:35:32;20.38;;;14.30;;
47772;SDS011;33534;51.028;13.716;2023-05-20T13:37:58;17.75;;;14.07;;
47772;SDS011;33534;51.028;13.716;2023-05-20T13:40:24;16.73;;;13.18;;
47772;SDS011;33534;51.028;13.716;2023-05-20T13:42:50;15.80;;;13.00;;
47772;SDS011;33534;51.028;13.716;2023-05-20T13:45:16;19.80;;;13.52;;
47772;SDS011;33534;51.028;13.716;2023-05-20T13:47:42;18.70;;;15.32;;
47772;SDS011;33534;51.028;13.716;2023-05-20T13:50:09;18.92;;;13.68;;
47772;SDS011;33534;51.028;13.716;2023-05-20T13:52:35;17.00;;;13.80;;
47772;SDS011;33534;51.028;13.716;2023-05-20T13:55:01;22.23;;;13.63;;
47772;SDS011;33534;51.028;13.716;2023-05-20T13:57:27;17.85;;;12.75;;
47772;SDS011;33534;51.028;13.716;2023-05-20T13:59:53;16.15;;;11.90;;
47772;SDS011;33534;51.028;13.716;2023-05-20T14:02:19;17.48;;;12.77;;
47772;SDS011;33534;51.028;13.716;2023-05-20T14:04:45;16.70;;;12.80;;
47772;SDS011;33534;51.028;13.716;2023-05-20T14:07:11;16.73;;;12.98;;
47772;SDS011;33534;51.028;13.716;2023-05-20T14:09:38;17.58;;;13.15;;
47772;SDS011;33534;51.028;13.716;2023-05-20T14:12:04;15.80;;;12.75;;
47772;SDS011;33534;51.028;13.716;2023-05-20T14:14:30;17.00;;;12.38;;
47772;SDS011;33534;51.028;13.716;2023-05-20T14:16:56;18.08;;;13.23;;